createdAt,value
2023-03-25T00:00:43.771Z,0.00
2023-03-25T00:01:43.794Z,0.00
2023-03-25T00:02:43.766Z,0.00
2023-03-25T00:03:44.401Z,0.00
2023-03-25T00:04:43.753Z,0.00
2023-03-25T00:05:43.697Z,0.00
2023-03-25T00:06:43.692Z,0.00
2023-03-25T00:07:43.666Z,0.00
2023-03-25T00:08:43.669Z,0.00
2023-03-25T00:09:43.652Z,0.00
2023-03-25T00:10:43.884Z,0.00
2023-03-25T00:11:43.621Z,0.00
2023-03-25T00:12:43.617Z,0.00
2023-03-25T00:13:43.610Z,0.00
2023-03-25T00:14:43.597Z,0.00
2023-03-25T00:15:43.569Z,4.00
2023-03-25T00:16:43.584Z,4.00
2023-03-25T00:17:43.566Z,4.00
2023-03-25T00:18:43.531Z,4.00
2023-03-25T00:19:43.532Z,0.00
2023-03-25T00:20:44.158Z,4.00
2023-03-25T00:21:44.156Z,4.00
2023-03-25T00:22:43.469Z,0.00
2023-03-25T00:23:43.454Z,0.00
2023-03-25T00:24:42.804Z,0.00
2023-03-25T00:25:43.440Z,0.00
2023-03-25T00:26:43.424Z,0.00
2023-03-25T00:27:43.378Z,4.00
2023-03-25T00:28:42.668Z,4.00
2023-03-25T00:29:43.382Z,4.00
2023-03-25T00:30:43.375Z,0.00
2023-03-25T00:31:43.354Z,4.00
2023-03-25T00:32:43.122Z,0.00
2023-03-25T00:33:43.138Z,4.00
2023-03-25T00:34:43.319Z,0.00
2023-03-25T00:35:43.188Z,4.00
2023-03-25T00:36:43.276Z,4.00
2023-03-25T00:37:43.257Z,4.00
2023-03-25T00:38:43.779Z,4.00
2023-03-25T00:39:43.156Z,4.00
2023-03-25T00:40:42.983Z,4.00
2023-03-25T00:41:43.138Z,4.00
2023-03-25T00:42:43.176Z,4.00
2023-03-25T00:43:43.202Z,4.00
2023-03-25T00:44:43.157Z,4.00
2023-03-25T00:45:43.887Z,4.00
2023-03-25T00:46:43.906Z,0.00
2023-03-25T00:47:43.161Z,0.00
2023-03-25T00:48:43.838Z,4.00
2023-03-25T00:49:43.835Z,0.00
2023-03-25T00:50:43.814Z,0.00
2023-03-25T00:51:52.261Z,0.00
2023-03-25T00:52:44.058Z,0.00
2023-03-25T00:53:43.769Z,0.00
2023-03-25T00:54:43.781Z,0.00
2023-03-25T00:55:43.760Z,0.00
2023-03-25T00:56:43.787Z,0.00
2023-03-25T00:57:42.976Z,0.00
2023-03-25T00:58:43.736Z,0.00
2023-03-25T00:59:43.691Z,0.00
2023-03-25T01:00:43.680Z,0.00
2023-03-25T01:01:43.718Z,0.00
2023-03-25T01:02:43.795Z,0.00
2023-03-25T01:03:42.981Z,0.00
2023-03-25T01:04:43.170Z,0.00
2023-03-25T01:05:42.891Z,0.00
2023-03-25T01:06:42.873Z,0.00
2023-03-25T01:07:42.873Z,0.00
2023-03-25T01:08:43.530Z,0.00
2023-03-25T01:09:42.885Z,0.00
2023-03-25T01:10:42.837Z,0.00
2023-03-25T01:11:43.494Z,0.00
2023-03-25T01:12:42.783Z,0.00
2023-03-25T01:13:42.801Z,0.00
2023-03-25T01:14:42.764Z,0.00
2023-03-25T01:15:43.488Z,0.00
2023-03-25T01:16:42.748Z,0.00
2023-03-25T01:17:42.718Z,0.00
2023-03-25T01:18:42.740Z,0.00
2023-03-25T01:19:42.710Z,0.00
2023-03-25T01:20:42.691Z,0.00
2023-03-25T01:21:42.683Z,0.00
2023-03-25T01:22:43.342Z,0.00
2023-03-25T01:23:42.643Z,0.00
2023-03-25T01:24:42.642Z,0.00
2023-03-25T01:25:42.613Z,0.00
2023-03-25T01:26:43.270Z,0.00
2023-03-25T01:27:42.573Z,0.00
2023-03-25T01:28:42.576Z,0.00
2023-03-25T01:29:42.198Z,0.00
2023-03-25T01:30:42.569Z,0.00
2023-03-25T01:31:42.141Z,0.00
2023-03-25T01:32:42.540Z,0.00
2023-03-25T01:33:42.526Z,0.00
2023-03-25T01:34:42.493Z,0.00
2023-03-25T01:35:42.219Z,0.00
2023-03-25T01:36:42.207Z,0.00
2023-03-25T01:37:42.195Z,0.00
2023-03-25T01:38:42.444Z,0.00
2023-03-25T01:39:42.220Z,0.00
2023-03-25T01:40:42.207Z,0.00
2023-03-25T01:41:49.091Z,0.00
2023-03-25T01:42:43.375Z,0.00
2023-03-25T01:43:42.379Z,0.00
2023-03-25T01:44:41.649Z,0.00
2023-03-25T01:45:42.411Z,0.00
2023-03-25T01:46:42.344Z,0.00
2023-03-25T01:47:41.788Z,0.00
2023-03-25T01:48:42.316Z,0.00
2023-03-25T01:49:43.021Z,0.00
2023-03-25T01:50:42.301Z,0.00
2023-03-25T01:51:42.275Z,0.00
2023-03-25T01:52:41.929Z,0.00
2023-03-25T01:53:42.246Z,0.00
2023-03-25T01:54:42.005Z,0.00
2023-03-25T01:55:42.216Z,0.00
2023-03-25T01:56:42.231Z,0.00
2023-03-25T01:57:42.206Z,0.00
2023-03-25T01:58:42.192Z,0.00
2023-03-25T01:59:42.168Z,0.00
2023-03-25T02:00:42.195Z,0.00
2023-03-25T02:01:42.888Z,0.00
2023-03-25T02:02:42.136Z,0.00
2023-03-25T02:03:41.472Z,0.00
2023-03-25T02:04:42.096Z,0.00
2023-03-25T02:05:42.758Z,0.00
2023-03-25T02:06:42.067Z,0.00
2023-03-25T02:07:43.138Z,0.00
2023-03-25T02:08:41.340Z,0.00
2023-03-25T02:09:42.030Z,0.00
2023-03-25T02:10:42.015Z,0.00
2023-03-25T02:11:42.001Z,0.00
2023-03-25T02:12:41.985Z,0.00
2023-03-25T02:13:41.948Z,0.00
2023-03-25T02:14:41.956Z,0.00
2023-03-25T02:15:41.962Z,0.00
2023-03-25T02:16:41.198Z,0.00
2023-03-25T02:17:41.959Z,0.00
2023-03-25T02:18:41.901Z,0.00
2023-03-25T02:19:41.230Z,0.00
2023-03-25T02:20:41.874Z,0.00
2023-03-25T02:21:42.550Z,0.00
2023-03-25T02:22:41.847Z,0.00
2023-03-25T02:23:42.530Z,0.00
2023-03-25T02:24:41.869Z,0.00
2023-03-25T02:25:41.818Z,0.00
2023-03-25T02:26:41.822Z,0.00
2023-03-25T02:27:41.055Z,0.00
2023-03-25T02:28:41.757Z,0.00
2023-03-25T02:29:41.774Z,0.00
2023-03-25T02:30:41.747Z,0.00
2023-03-25T02:31:41.810Z,0.00
2023-03-25T02:32:41.018Z,0.00
2023-03-25T02:33:41.728Z,0.00
2023-03-25T02:34:42.371Z,0.00
2023-03-25T02:35:40.982Z,0.00
2023-03-25T02:36:41.668Z,0.00
2023-03-25T02:37:41.647Z,0.00
2023-03-25T02:38:41.665Z,0.00
2023-03-25T02:39:41.627Z,0.00
2023-03-25T02:40:41.608Z,0.00
2023-03-25T02:41:42.275Z,0.00
2023-03-25T02:42:41.590Z,0.00
2023-03-25T02:43:40.862Z,0.00
2023-03-25T02:44:41.578Z,0.00
2023-03-25T02:45:41.614Z,0.00
2023-03-25T02:46:41.541Z,0.00
2023-03-25T02:47:42.272Z,0.00
2023-03-25T02:48:41.482Z,0.00
2023-03-25T02:49:41.265Z,0.00
2023-03-25T02:50:41.267Z,0.00
2023-03-25T02:51:41.258Z,0.00
2023-03-25T02:52:41.466Z,0.00
2023-03-25T02:53:42.180Z,0.00
2023-03-25T02:54:41.266Z,0.00
2023-03-25T02:55:41.431Z,0.00
2023-03-25T02:56:40.691Z,0.00
2023-03-25T02:57:41.265Z,0.00
2023-03-25T02:58:41.368Z,0.00
2023-03-25T02:59:41.264Z,0.00
2023-03-25T03:00:41.340Z,0.00
2023-03-25T03:01:41.386Z,0.00
2023-03-25T03:02:41.346Z,0.00
2023-03-25T03:03:41.987Z,0.00
2023-03-25T03:04:41.291Z,0.00
2023-03-25T03:05:41.321Z,0.00
2023-03-25T03:06:41.258Z,0.00
2023-03-25T03:07:40.530Z,0.00
2023-03-25T03:08:41.218Z,0.00
2023-03-25T03:09:41.221Z,0.00
2023-03-25T03:10:41.228Z,0.00
2023-03-25T03:11:41.209Z,0.00
2023-03-25T03:12:41.181Z,0.00
2023-03-25T03:13:41.171Z,0.00
2023-03-25T03:14:41.151Z,0.00
2023-03-25T03:15:40.885Z,0.00
2023-03-25T03:16:41.183Z,0.00
2023-03-25T03:17:41.198Z,0.00
2023-03-25T03:18:41.078Z,0.00
2023-03-25T03:19:41.130Z,0.00
2023-03-25T03:20:41.798Z,0.00
2023-03-25T03:21:41.734Z,0.00
2023-03-25T03:22:41.058Z,0.00
2023-03-25T03:23:41.729Z,0.00
2023-03-25T03:24:41.034Z,0.00
2023-03-25T03:25:41.007Z,0.00
2023-03-25T03:26:41.034Z,0.00
2023-03-25T03:27:40.996Z,0.00
2023-03-25T03:28:40.251Z,0.00
2023-03-25T03:29:40.955Z,0.00
2023-03-25T03:30:40.962Z,0.00
2023-03-25T03:31:52.171Z,4.00
2023-03-25T03:32:41.996Z,0.00
2023-03-25T03:33:40.923Z,4.00
2023-03-25T03:34:41.556Z,4.00
2023-03-25T03:35:40.911Z,0.00
2023-03-25T03:36:41.526Z,4.00
2023-03-25T03:37:40.858Z,0.00
2023-03-25T03:38:41.074Z,0.00
2023-03-25T03:39:40.103Z,0.00
2023-03-25T03:40:40.799Z,0.00
2023-03-25T03:41:40.793Z,0.00
2023-03-25T03:42:40.785Z,0.00
2023-03-25T03:43:40.754Z,0.00
2023-03-25T03:44:40.309Z,0.00
2023-03-25T03:45:40.750Z,0.00
2023-03-25T03:46:40.778Z,0.00
2023-03-25T03:47:40.777Z,0.00
2023-03-25T03:48:40.696Z,0.00
2023-03-25T03:49:40.653Z,0.00
2023-03-25T03:50:40.132Z,0.00
2023-03-25T03:51:40.677Z,0.00
2023-03-25T03:52:40.195Z,0.00
2023-03-25T03:53:40.625Z,0.00
2023-03-25T03:54:40.599Z,0.00
2023-03-25T03:55:40.262Z,0.00
2023-03-25T03:56:40.617Z,0.00
2023-03-25T03:57:40.590Z,0.00
2023-03-25T03:58:40.311Z,4.00
2023-03-25T03:59:40.315Z,0.00
2023-03-25T04:00:39.816Z,0.00
2023-03-25T04:01:40.355Z,0.00
2023-03-25T04:02:40.539Z,0.00
2023-03-25T04:03:40.332Z,0.00
2023-03-25T04:04:40.449Z,0.00
2023-03-25T04:05:41.142Z,0.00
2023-03-25T04:06:40.317Z,0.00
2023-03-25T04:07:40.429Z,0.00
2023-03-25T04:08:40.314Z,0.00
2023-03-25T04:09:40.419Z,0.00
2023-03-25T04:10:40.408Z,0.00
2023-03-25T04:11:40.343Z,0.00
2023-03-25T04:12:40.372Z,0.00
2023-03-25T04:13:40.353Z,0.00
2023-03-25T04:14:40.334Z,0.00
2023-03-25T04:15:41.321Z,0.00
2023-03-25T04:16:40.344Z,0.00
2023-03-25T04:17:41.084Z,0.00
2023-03-25T04:18:40.511Z,0.00
2023-03-25T04:19:39.543Z,0.00
2023-03-25T04:20:40.259Z,0.00
2023-03-25T04:21:40.244Z,0.00
2023-03-25T04:22:39.522Z,0.00
2023-03-25T04:23:40.223Z,0.00
2023-03-25T04:24:40.203Z,0.00
2023-03-25T04:25:40.190Z,0.00
2023-03-25T04:26:40.177Z,0.00
2023-03-25T04:27:40.188Z,0.00
2023-03-25T04:28:40.150Z,0.00
2023-03-25T04:29:40.124Z,0.00
2023-03-25T04:30:40.145Z,0.00
2023-03-25T04:31:40.829Z,0.00
2023-03-25T04:32:40.846Z,0.00
2023-03-25T04:33:40.084Z,0.00
2023-03-25T04:34:40.761Z,0.00
2023-03-25T04:35:40.096Z,0.00
2023-03-25T04:36:40.047Z,0.00
2023-03-25T04:37:40.045Z,0.00
2023-03-25T04:38:40.023Z,0.00
2023-03-25T04:39:40.692Z,0.00
2023-03-25T04:40:39.993Z,4.00
2023-03-25T04:41:40.699Z,4.00
2023-03-25T04:42:39.970Z,4.00
2023-03-25T04:43:39.970Z,0.00
2023-03-25T04:44:39.912Z,0.00
2023-03-25T04:45:39.958Z,4.00
2023-03-25T04:46:39.964Z,4.00
2023-03-25T04:47:39.920Z,4.00
2023-03-25T04:48:39.884Z,4.00
2023-03-25T04:49:39.840Z,4.00
2023-03-25T04:50:39.857Z,4.00
2023-03-25T04:51:39.854Z,4.00
2023-03-25T04:52:39.847Z,0.00
2023-03-25T04:53:39.835Z,0.00
2023-03-25T04:54:39.784Z,4.00
2023-03-25T04:55:39.781Z,4.00
2023-03-25T04:56:40.474Z,4.00
2023-03-25T04:57:39.761Z,8.00
2023-03-25T04:58:39.981Z,8.00
2023-03-25T04:59:39.370Z,8.00
2023-03-25T05:00:39.726Z,8.00
2023-03-25T05:01:39.736Z,12.00
2023-03-25T05:02:39.737Z,16.00
2023-03-25T05:03:39.680Z,16.00
2023-03-25T05:04:39.653Z,16.00
2023-03-25T05:05:39.649Z,16.00
2023-03-25T05:06:39.643Z,16.00
2023-03-25T05:07:39.618Z,20.00
2023-03-25T05:08:39.608Z,28.00
2023-03-25T05:09:39.568Z,40.00
2023-03-25T05:10:38.979Z,48.00
2023-03-25T05:11:39.621Z,52.00
2023-03-25T05:12:39.016Z,64.00
2023-03-25T05:13:39.540Z,80.00
2023-03-25T05:14:39.108Z,96.00
2023-03-25T05:15:39.516Z,116.00
2023-03-25T05:16:40.215Z,128.00
2023-03-25T05:17:39.537Z,152.00
2023-03-25T05:18:39.236Z,172.00
2023-03-25T05:19:39.458Z,208.00
2023-03-25T05:20:39.294Z,232.00
2023-03-25T05:21:40.169Z,272.00
2023-03-25T05:22:39.383Z,304.00
2023-03-25T05:23:39.405Z,348.00
2023-03-25T05:24:40.389Z,396.00
2023-03-25T05:25:39.345Z,436.00
2023-03-25T05:26:38.811Z,468.00
2023-03-25T05:27:39.405Z,524.00
2023-03-25T05:28:39.364Z,568.00
2023-03-25T05:29:40.061Z,616.00
2023-03-25T05:30:40.059Z,672.00
2023-03-25T05:31:40.088Z,724.00
2023-03-25T05:32:39.286Z,776.00
2023-03-25T05:33:40.013Z,832.00
2023-03-25T05:34:39.983Z,912.00
2023-03-25T05:35:40.028Z,952.00
2023-03-25T05:36:39.953Z,996.00
2023-03-25T05:37:39.226Z,1068.00
2023-03-25T05:38:39.925Z,1156.00
2023-03-25T05:39:39.926Z,1224.00
2023-03-25T05:40:39.915Z,1276.00
2023-03-25T05:41:39.899Z,1436.00
2023-03-25T05:42:39.159Z,1640.00
2023-03-25T05:43:39.137Z,1676.00
2023-03-25T05:44:39.116Z,1696.00
2023-03-25T05:45:39.116Z,1836.00
2023-03-25T05:46:39.095Z,1736.00
2023-03-25T05:47:39.123Z,1860.00
2023-03-25T05:48:39.100Z,2208.00
2023-03-25T05:49:39.055Z,2764.00
2023-03-25T05:50:39.022Z,2780.00
2023-03-25T05:51:39.090Z,2848.00
2023-03-25T05:52:39.014Z,1988.00
2023-03-25T05:53:38.993Z,1972.00
2023-03-25T05:54:38.998Z,2084.00
2023-03-25T05:55:39.663Z,2208.00
2023-03-25T05:56:39.004Z,2396.00
2023-03-25T05:57:38.958Z,2320.00
2023-03-25T05:58:38.932Z,2492.00
2023-03-25T05:59:38.915Z,2480.00
2023-03-25T06:00:38.878Z,2556.00
2023-03-25T06:01:38.888Z,2592.00
2023-03-25T06:02:39.003Z,2652.00
2023-03-25T06:03:38.942Z,2708.00
2023-03-25T06:04:38.846Z,2780.00
2023-03-25T06:05:38.824Z,2852.00
2023-03-25T06:06:39.062Z,2944.00
2023-03-25T06:07:38.810Z,3056.00
2023-03-25T06:08:39.469Z,3180.00
2023-03-25T06:09:38.779Z,3304.00
2023-03-25T06:10:38.749Z,3380.00
2023-03-25T06:11:39.437Z,3464.00
2023-03-25T06:12:38.743Z,3532.00
2023-03-25T06:13:38.732Z,3620.00
2023-03-25T06:14:38.730Z,3752.00
2023-03-25T06:15:38.739Z,4388.00
2023-03-25T06:16:38.687Z,6388.00
2023-03-25T06:17:38.783Z,6684.00
2023-03-25T06:18:38.422Z,7140.00
2023-03-25T06:19:38.419Z,6696.00
2023-03-25T06:20:38.424Z,5476.00
2023-03-25T06:21:38.617Z,5820.00
2023-03-25T06:22:39.288Z,5488.00
2023-03-25T06:23:38.619Z,5944.00
2023-03-25T06:24:38.631Z,6380.00
2023-03-25T06:25:38.539Z,5880.00
2023-03-25T06:26:38.556Z,5860.00
2023-03-25T06:27:38.539Z,6220.00
2023-03-25T06:28:39.204Z,7288.00
2023-03-25T06:29:38.542Z,9080.00
2023-03-25T06:30:38.481Z,9996.00
2023-03-25T06:31:37.998Z,10276.00
2023-03-25T06:32:38.528Z,6560.00
2023-03-25T06:33:42.770Z,5144.00
2023-03-25T06:34:39.461Z,4904.00
2023-03-25T06:35:38.477Z,5368.00
2023-03-25T06:36:38.424Z,5436.00
2023-03-25T06:37:38.408Z,5748.00
2023-03-25T06:38:38.401Z,6452.00
2023-03-25T06:39:39.055Z,6444.00
2023-03-25T06:40:38.341Z,6852.00
2023-03-25T06:41:38.361Z,5872.00
2023-03-25T06:42:39.014Z,5772.00
2023-03-25T06:43:38.371Z,5808.00
2023-03-25T06:44:38.307Z,6156.00
2023-03-25T06:45:38.965Z,6932.00
2023-03-25T06:46:39.077Z,9052.00
2023-03-25T06:47:41.447Z,11960.00
2023-03-25T06:48:38.248Z,11304.00
2023-03-25T06:49:38.247Z,10272.00
2023-03-25T06:50:38.245Z,10116.00
2023-03-25T06:51:38.191Z,11636.00
2023-03-25T06:52:38.198Z,11396.00
2023-03-25T06:53:38.287Z,10636.00
2023-03-25T06:54:38.177Z,7740.00
2023-03-25T06:55:38.159Z,8560.00
2023-03-25T06:56:38.221Z,9164.00
2023-03-25T06:57:38.126Z,9456.00
2023-03-25T06:58:38.147Z,8704.00
2023-03-25T06:59:38.124Z,8256.00
2023-03-25T07:00:38.090Z,6128.00
2023-03-25T07:01:38.094Z,7300.00
2023-03-25T07:02:38.159Z,10644.00
2023-03-25T07:03:37.458Z,14692.00
2023-03-25T07:04:38.047Z,13940.00
2023-03-25T07:05:38.118Z,13332.00
2023-03-25T07:06:37.302Z,12124.00
2023-03-25T07:07:37.999Z,10064.00
2023-03-25T07:08:37.991Z,11672.00
2023-03-25T07:09:38.642Z,9952.00
2023-03-25T07:10:37.952Z,10936.00
2023-03-25T07:11:37.930Z,13644.00
2023-03-25T07:12:37.937Z,17408.00
2023-03-25T07:13:37.909Z,15720.00
2023-03-25T07:14:37.916Z,12664.00
2023-03-25T07:15:38.622Z,9984.00
2023-03-25T07:16:38.072Z,11816.00
2023-03-25T07:17:37.879Z,11032.00
2023-03-25T07:18:37.852Z,7908.00
2023-03-25T07:19:37.830Z,11592.00
2023-03-25T07:20:37.822Z,19360.00
2023-03-25T07:21:38.500Z,19552.00
2023-03-25T07:22:37.063Z,18944.00
2023-03-25T07:23:37.784Z,13956.00
2023-03-25T07:24:37.779Z,10908.00
2023-03-25T07:25:37.763Z,11204.00
2023-03-25T07:26:38.476Z,12996.00
2023-03-25T07:27:37.468Z,33856.00
2023-03-25T07:28:37.472Z,20000.00
2023-03-25T07:29:37.467Z,25440.00
2023-03-25T07:30:37.519Z,29440.00
2023-03-25T07:31:38.102Z,15384.00
2023-03-25T07:32:38.388Z,20864.00
2023-03-25T07:33:37.642Z,32096.00
2023-03-25T07:34:37.639Z,11660.00
2023-03-25T07:35:37.501Z,15200.00
2023-03-25T07:36:37.477Z,22240.00
2023-03-25T07:37:37.616Z,22528.00
2023-03-25T07:38:37.485Z,13928.00
2023-03-25T07:39:37.569Z,14912.00
2023-03-25T07:40:37.573Z,18176.00
2023-03-25T07:41:37.512Z,24800.00
2023-03-25T07:42:37.529Z,32448.00
2023-03-25T07:43:37.502Z,21216.00
2023-03-25T07:44:38.488Z,14860.00
2023-03-25T07:45:43.834Z,18432.00
2023-03-25T07:46:38.192Z,20224.00
2023-03-25T07:47:38.234Z,22720.00
2023-03-25T07:48:38.158Z,22496.00
2023-03-25T07:49:38.154Z,17984.00
2023-03-25T07:50:38.137Z,18016.00
2023-03-25T07:51:37.392Z,12508.00
2023-03-25T07:52:38.105Z,12812.00
2023-03-25T07:53:37.373Z,13928.00
2023-03-25T07:54:38.076Z,13184.00
2023-03-25T07:55:38.090Z,12220.00
2023-03-25T07:56:37.347Z,15984.00
2023-03-25T07:57:38.040Z,16928.00
2023-03-25T07:58:38.032Z,15628.00
2023-03-25T07:59:37.296Z,12856.00
2023-03-25T08:00:37.298Z,9760.00
2023-03-25T08:01:38.201Z,9040.00
2023-03-25T08:02:37.340Z,8488.00
2023-03-25T08:03:37.373Z,12644.00
2023-03-25T08:04:37.896Z,17152.00
2023-03-25T08:05:37.214Z,15780.00
2023-03-25T08:06:37.193Z,13184.00
2023-03-25T08:07:37.161Z,17824.00
2023-03-25T08:08:37.167Z,19296.00
2023-03-25T08:09:37.169Z,15308.00
2023-03-25T08:10:37.145Z,13312.00
2023-03-25T08:11:37.343Z,18752.00
2023-03-25T08:12:37.096Z,23616.00
2023-03-25T08:13:37.767Z,27840.00
2023-03-25T08:14:37.080Z,29056.00
2023-03-25T08:15:36.342Z,25600.00
2023-03-25T08:16:37.149Z,42176.00
2023-03-25T08:17:37.059Z,27520.00
2023-03-25T08:18:37.040Z,33568.00
2023-03-25T08:19:37.090Z,37504.00
2023-03-25T08:20:36.998Z,16960.00
2023-03-25T08:21:36.998Z,15336.00
2023-03-25T08:22:37.708Z,11096.00
2023-03-25T08:23:36.998Z,10660.00
2023-03-25T08:24:36.952Z,14560.00
2023-03-25T08:25:36.927Z,14576.00
2023-03-25T08:26:36.914Z,14556.00
2023-03-25T08:27:36.889Z,18496.00
2023-03-25T08:28:36.886Z,20544.00
2023-03-25T08:29:36.876Z,15320.00
2023-03-25T08:30:36.871Z,10564.00
2023-03-25T08:31:36.418Z,9944.00
2023-03-25T08:32:36.816Z,9988.00
2023-03-25T08:33:36.825Z,14680.00
2023-03-25T08:34:36.149Z,15540.00
2023-03-25T08:35:36.810Z,18528.00
2023-03-25T08:36:36.786Z,16072.00
2023-03-25T08:37:36.522Z,14976.00
2023-03-25T08:38:36.526Z,19968.00
2023-03-25T08:39:36.524Z,21920.00
2023-03-25T08:40:36.531Z,22656.00
2023-03-25T08:41:36.525Z,22752.00
2023-03-25T08:42:36.533Z,18784.00
2023-03-25T08:43:36.675Z,13880.00
2023-03-25T08:44:36.667Z,14528.00
2023-03-25T08:45:36.666Z,20992.00
2023-03-25T08:46:37.379Z,22336.00
2023-03-25T08:47:35.980Z,19040.00
2023-03-25T08:48:36.616Z,17056.00
2023-03-25T08:49:37.276Z,16236.00
2023-03-25T08:50:36.027Z,17728.00
2023-03-25T08:51:36.569Z,17376.00
2023-03-25T08:52:36.538Z,20032.00
2023-03-25T08:53:36.566Z,19264.00
2023-03-25T08:54:37.269Z,17408.00
2023-03-25T08:55:36.521Z,15948.00
2023-03-25T08:56:36.554Z,20704.00
2023-03-25T08:57:36.477Z,20832.00
2023-03-25T08:58:36.482Z,21056.00
2023-03-25T08:59:36.477Z,25984.00
2023-03-25T09:00:36.446Z,23328.00
2023-03-25T09:01:36.453Z,21024.00
2023-03-25T09:02:36.439Z,23456.00
2023-03-25T09:03:36.450Z,85600.00
2023-03-25T09:04:36.409Z,59936.00
2023-03-25T09:05:36.438Z,26496.00
2023-03-25T09:06:47.780Z,27520.00
2023-03-25T09:07:37.329Z,23136.00
2023-03-25T09:08:36.364Z,22368.00
2023-03-25T09:09:36.997Z,24288.00
2023-03-25T09:10:38.137Z,22240.00
2023-03-25T09:11:37.074Z,17536.00
2023-03-25T09:12:36.261Z,20320.00
2023-03-25T09:13:36.319Z,30784.00
2023-03-25T09:14:36.268Z,33792.00
2023-03-25T09:15:36.267Z,38944.00
2023-03-25T09:16:36.237Z,44064.00
2023-03-25T09:17:36.286Z,83264.00
2023-03-25T09:18:36.228Z,67328.00
2023-03-25T09:19:36.863Z,35232.00
2023-03-25T09:20:36.179Z,34464.00
2023-03-25T09:21:36.171Z,49280.00
2023-03-25T09:22:36.124Z,29248.00
2023-03-25T09:23:36.135Z,28768.00
2023-03-25T09:24:36.122Z,28672.00
2023-03-25T09:25:36.110Z,30464.00
2023-03-25T09:26:36.091Z,29856.00
2023-03-25T09:27:35.559Z,29920.00
2023-03-25T09:28:36.069Z,34176.00
2023-03-25T09:29:36.065Z,40256.00
2023-03-25T09:30:36.036Z,40480.00
2023-03-25T09:31:36.758Z,32544.00
2023-03-25T09:32:36.037Z,27520.00
2023-03-25T09:33:36.007Z,28736.00
2023-03-25T09:34:35.982Z,25664.00
2023-03-25T09:35:35.985Z,27200.00
2023-03-25T09:36:35.967Z,30880.00
2023-03-25T09:37:35.928Z,34656.00
2023-03-25T09:38:35.939Z,35392.00
2023-03-25T09:39:35.912Z,33728.00
2023-03-25T09:40:35.898Z,35360.00
2023-03-25T09:41:35.894Z,32064.00
2023-03-25T09:42:35.848Z,39904.00
2023-03-25T09:43:35.548Z,54144.00
2023-03-25T09:44:35.854Z,82624.00
2023-03-25T09:45:35.885Z,102880.00
2023-03-25T09:46:35.612Z,42208.00
2023-03-25T09:47:35.632Z,36032.00
2023-03-25T09:48:35.582Z,33760.00
2023-03-25T09:49:35.782Z,36928.00
2023-03-25T09:50:35.593Z,46112.00
2023-03-25T09:51:35.589Z,43232.00
2023-03-25T09:52:35.741Z,51360.00
2023-03-25T09:53:35.702Z,33632.00
2023-03-25T09:54:35.708Z,26336.00
2023-03-25T09:55:35.703Z,18528.00
2023-03-25T09:56:37.439Z,22688.00
2023-03-25T09:57:36.667Z,24992.00
2023-03-25T09:58:35.593Z,30144.00
2023-03-25T09:59:35.655Z,30176.00
2023-03-25T10:00:35.720Z,36672.00
2023-03-25T10:01:35.681Z,43904.00
2023-03-25T10:02:35.738Z,46144.00
2023-03-25T10:03:36.319Z,30208.00
2023-03-25T10:04:35.570Z,24544.00
2023-03-25T10:05:35.589Z,22208.00
2023-03-25T10:06:35.570Z,25696.00
2023-03-25T10:07:36.246Z,30944.00
2023-03-25T10:08:36.258Z,28544.00
2023-03-25T10:09:36.231Z,26016.00
2023-03-25T10:10:36.231Z,30144.00
2023-03-25T10:11:36.197Z,48992.00
2023-03-25T10:12:36.194Z,78144.00
2023-03-25T10:13:35.425Z,47104.00
2023-03-25T10:14:35.460Z,87488.00
2023-03-25T10:15:35.456Z,30144.00
2023-03-25T10:16:36.151Z,27776.00
2023-03-25T10:17:35.205Z,22528.00
2023-03-25T10:18:36.124Z,15880.00
2023-03-25T10:19:35.372Z,12992.00
2023-03-25T10:20:35.402Z,11440.00
2023-03-25T10:21:35.360Z,13704.00
2023-03-25T10:22:36.004Z,17184.00
2023-03-25T10:23:36.000Z,21856.00
2023-03-25T10:24:35.302Z,16992.00
2023-03-25T10:25:35.960Z,13104.00
2023-03-25T10:26:35.273Z,14056.00
2023-03-25T10:27:35.951Z,27296.00
2023-03-25T10:28:35.244Z,33888.00
2023-03-25T10:29:35.235Z,35168.00
2023-03-25T10:30:35.235Z,15856.00
2023-03-25T10:31:35.243Z,19264.00
2023-03-25T10:32:35.892Z,26400.00
2023-03-25T10:33:35.158Z,19648.00
2023-03-25T10:34:36.155Z,16772.00
2023-03-25T10:35:35.232Z,13932.00
2023-03-25T10:36:35.129Z,13688.00
2023-03-25T10:37:35.132Z,18016.00
2023-03-25T10:38:35.787Z,30304.00
2023-03-25T10:39:35.091Z,107136.00
2023-03-25T10:40:35.089Z,92800.00
2023-03-25T10:41:34.744Z,39744.00
2023-03-25T10:42:35.730Z,19424.00
2023-03-25T10:43:35.035Z,25568.00
2023-03-25T10:44:35.021Z,90496.00
2023-03-25T10:45:35.067Z,83808.00
2023-03-25T10:46:35.024Z,80640.00
2023-03-25T10:47:34.744Z,79264.00
2023-03-25T10:48:34.761Z,89536.00
2023-03-25T10:49:34.970Z,95520.00
2023-03-25T10:50:34.945Z,44512.00
2023-03-25T10:51:34.930Z,64480.00
2023-03-25T10:52:34.930Z,99232.00
2023-03-25T10:53:34.877Z,37088.00
2023-03-25T10:54:34.640Z,106464.00
2023-03-25T10:55:34.638Z,44000.00
2023-03-25T10:56:34.697Z,59424.00
2023-03-25T10:57:34.650Z,39232.00
2023-03-25T10:58:34.646Z,106144.00
2023-03-25T10:59:34.650Z,33856.00
2023-03-25T11:00:34.653Z,28704.00
2023-03-25T11:01:34.683Z,25056.00
2023-03-25T11:02:34.759Z,38368.00
2023-03-25T11:03:34.689Z,52032.00
2023-03-25T11:04:35.485Z,81280.00
2023-03-25T11:05:34.696Z,95360.00
2023-03-25T11:06:34.731Z,92128.00
2023-03-25T11:07:34.785Z,22368.00
2023-03-25T11:08:34.679Z,87424.00
2023-03-25T11:09:33.987Z,84896.00
2023-03-25T11:10:34.010Z,81056.00
2023-03-25T11:11:34.650Z,81056.00
2023-03-25T11:12:42.904Z,85088.00
2023-03-25T11:13:35.613Z,35968.00
2023-03-25T11:14:34.642Z,35872.00
2023-03-25T11:15:34.896Z,38560.00
2023-03-25T11:16:34.619Z,37184.00
2023-03-25T11:17:34.605Z,31552.00
2023-03-25T11:18:33.882Z,25472.00
2023-03-25T11:19:34.549Z,19296.00
2023-03-25T11:20:34.537Z,13852.00
2023-03-25T11:21:34.540Z,12020.00
2023-03-25T11:22:34.537Z,11148.00
2023-03-25T11:23:34.527Z,9296.00
2023-03-25T11:24:34.458Z,9736.00
2023-03-25T11:25:34.463Z,11740.00
2023-03-25T11:26:33.899Z,12756.00
2023-03-25T11:27:34.444Z,14600.00
2023-03-25T11:28:34.419Z,21408.00
2023-03-25T11:29:34.387Z,16784.00
2023-03-25T11:30:34.407Z,96736.00
2023-03-25T11:31:34.383Z,93120.00
2023-03-25T11:32:34.397Z,90912.00
2023-03-25T11:33:34.369Z,92064.00
2023-03-25T11:34:33.639Z,93056.00
2023-03-25T11:35:34.382Z,96768.00
2023-03-25T11:36:34.334Z,17984.00
2023-03-25T11:37:34.300Z,20416.00
2023-03-25T11:38:34.340Z,102368.00
2023-03-25T11:39:34.234Z,24512.00
2023-03-25T11:40:34.251Z,22944.00
2023-03-25T11:41:34.260Z,19968.00
2023-03-25T11:42:33.534Z,15792.00
2023-03-25T11:43:34.448Z,15388.00
2023-03-25T11:44:34.185Z,17728.00
2023-03-25T11:45:35.463Z,15712.00
2023-03-25T11:46:34.860Z,17696.00
2023-03-25T11:47:34.225Z,26880.00
2023-03-25T11:48:34.135Z,108544.00
2023-03-25T11:49:34.131Z,49344.00
2023-03-25T11:50:33.397Z,47744.00
2023-03-25T11:51:34.099Z,36288.00
2023-03-25T11:52:34.087Z,28480.00
2023-03-25T11:53:34.099Z,96416.00
2023-03-25T11:54:34.044Z,91872.00
2023-03-25T11:55:34.048Z,87776.00
2023-03-25T11:56:34.753Z,86144.00
2023-03-25T11:57:34.023Z,84960.00
2023-03-25T11:58:33.272Z,85280.00
2023-03-25T11:59:33.521Z,87328.00
2023-03-25T12:00:34.218Z,92224.00
2023-03-25T12:01:33.221Z,100640.00
2023-03-25T12:02:34.067Z,40256.00
2023-03-25T12:03:33.988Z,76992.00
2023-03-25T12:04:33.597Z,30432.00
2023-03-25T12:05:33.928Z,24832.00
2023-03-25T12:06:33.224Z,21344.00
2023-03-25T12:07:33.711Z,18752.00
2023-03-25T12:08:33.874Z,20928.00
2023-03-25T12:09:33.125Z,24928.00
2023-03-25T12:10:33.849Z,43392.00
2023-03-25T12:11:33.837Z,56096.00
2023-03-25T12:12:33.702Z,65248.00
2023-03-25T12:13:33.823Z,35296.00
2023-03-25T12:14:33.728Z,92896.00
2023-03-25T12:15:34.447Z,25632.00
2023-03-25T12:16:33.799Z,25280.00
2023-03-25T12:17:33.071Z,28384.00
2023-03-25T12:18:33.731Z,111424.00
2023-03-25T12:19:34.465Z,34688.00
2023-03-25T12:20:33.146Z,32320.00
2023-03-25T12:21:33.321Z,30272.00
2023-03-25T12:22:33.017Z,22944.00
2023-03-25T12:23:33.677Z,16960.00
2023-03-25T12:24:34.385Z,17856.00